Time;durP1;ratioP1;P1;durP2;ratioP2;P2;SDS_P1;SDS_P2;PMS_P1;PMS_P2;Temp;Humidity;BMP_temperature;BMP_pressure;BME280_temperature;BME280_humidity;BME280_pressure;Samples;Min_cycle;Max_cycle;Signal;HPM_P1;HPM_P2
2023/01/14 00:00:12;;;;;;;0.00;0.00;;;;;;;;;;7373773;19;20745;-66
2023/01/14 00:02:41;;;;;;;0.00;0.00;;;;;;;;;;7373484;19;20661;-67
2023/01/14 00:05:10;;;;;;;0.10;0.10;;;;;;;;;;7375241;19;20667;-67
2023/01/14 00:07:39;;;;;;;0.00;0.00;;;;;;;;;;7372761;19;20777;-66
2023/01/14 00:10:11;;;;;;;0.10;0.10;;;;;;;;;;7381742;19;20642;-66
2023/01/14 00:12:40;;;;;;;0.00;0.00;;;;;;;;;;7388963;19;20603;-66
2023/01/14 00:15:10;;;;;;;0.10;0.10;;;;;;;;;;7386330;19;20697;-67
2023/01/14 00:17:39;;;;;;;0.00;0.00;;;;;;;;;;7385449;19;20658;-68
2023/01/14 00:20:08;;;;;;;0.00;0.00;;;;;;;;;;7389922;19;20645;-67
2023/01/14 00:22:37;;;;;;;0.10;0.10;;;;;;;;;;7389027;19;20624;-67
2023/01/14 00:25:07;;;;;;;0.10;0.10;;;;;;;;;;7385684;19;20626;-67
2023/01/14 00:27:38;;;;;;;0.10;0.10;;;;;;;;;;7387128;19;20699;-67
2023/01/14 00:30:07;;;;;;;0.10;0.10;;;;;;;;;;7388476;19;20595;-67
2023/01/14 00:32:36;;;;;;;0.10;0.10;;;;;;;;;;7388881;19;20607;-67
2023/01/14 00:35:05;;;;;;;0.10;0.10;;;;;;;;;;7384687;19;20672;-66
2023/01/14 00:37:34;;;;;;;0.10;0.10;;;;;;;;;;7387571;19;20603;-67
2023/01/14 00:40:03;;;;;;;0.03;0.03;;;;;;;;;;7387755;19;20686;-67
2023/01/14 00:42:32;;;;;;;0.07;0.07;;;;;;;;;;7386396;19;20745;-66
2023/01/14 00:45:04;;;;;;;0.10;0.10;;;;;;;;;;7385551;19;20626;-67
2023/01/14 00:47:32;;;;;;;0.10;0.10;;;;;;;;;;7385689;19;20651;-67
2023/01/14 00:50:03;;;;;;;0.00;0.00;;;;;;;;;;7386105;19;20652;-67
2023/01/14 00:52:32;;;;;;;0.03;0.03;;;;;;;;;;7388743;19;20595;-67
2023/01/14 00:55:04;;;;;;;0.10;0.10;;;;;;;;;;7383633;19;20619;-67
2023/01/14 00:57:34;;;;;;;0.10;0.10;;;;;;;;;;7385659;19;21511;-66
2023/01/14 01:00:06;;;;;;;0.07;0.07;;;;;;;;;;7386103;19;20677;-66
2023/01/14 01:02:35;;;;;;;0.00;0.00;;;;;;;;;;7385589;19;20618;-67
2023/01/14 01:05:04;;;;;;;0.10;0.10;;;;;;;;;;7387710;19;21282;-66
2023/01/14 01:07:33;;;;;;;0.10;0.10;;;;;;;;;;7384241;19;20736;-66
2023/01/14 01:10:02;;;;;;;0.10;0.10;;;;;;;;;;7380180;19;21326;-66
2023/01/14 01:12:30;;;;;;;0.10;0.10;;;;;;;;;;7385504;19;20623;-67
2023/01/14 01:14:59;;;;;;;0.00;0.00;;;;;;;;;;7384098;19;20655;-66
2023/01/14 01:17:31;;;;;;;0.10;0.10;;;;;;;;;;7383558;19;20666;-67
2023/01/14 01:20:00;;;;;;;0.10;0.10;;;;;;;;;;7384759;19;20642;-66
2023/01/14 01:22:31;;;;;;;0.00;0.00;;;;;;;;;;7378029;19;20611;-67
2023/01/14 01:25:02;;;;;;;0.00;0.00;;;;;;;;;;7378130;19;20603;-66
2023/01/14 01:27:31;;;;;;;0.10;0.10;;;;;;;;;;7380637;19;20665;-66
2023/01/14 01:30:00;;;;;;;0.10;0.10;;;;;;;;;;7379576;19;20648;-66
2023/01/14 01:32:32;;;;;;;0.00;0.00;;;;;;;;;;7379413;19;20646;-66
2023/01/14 01:35:02;;;;;;;0.10;0.10;;;;;;;;;;7377583;19;20615;-66
2023/01/14 01:37:31;;;;;;;0.10;0.10;;;;;;;;;;7378052;19;20773;-66
2023/01/14 01:40:00;;;;;;;0.10;0.10;;;;;;;;;;7379927;19;20606;-67
2023/01/14 01:42:33;;;;;;;0.00;0.00;;;;;;;;;;7377936;19;20668;-66
2023/01/14 01:45:12;;;;;;;0.00;0.00;;;;;;;;;;7378909;19;20665;-66
2023/01/14 01:47:44;;;;;;;0.10;0.10;;;;;;;;;;7376917;19;20727;-67
2023/01/14 01:50:14;;;;;;;0.00;0.00;;;;;;;;;;7377757;19;20614;-66
2023/01/14 01:52:44;;;;;;;0.00;0.00;;;;;;;;;;7377707;19;20622;-66
2023/01/14 01:55:15;;;;;;;0.10;0.10;;;;;;;;;;7377044;19;20634;-66
2023/01/14 01:57:44;;;;;;;0.10;0.10;;;;;;;;;;7376401;19;20658;-66
2023/01/14 02:00:14;;;;;;;0.10;0.10;;;;;;;;;;7376338;19;20749;-67
2023/01/14 02:02:50;;;;;;;0.00;0.00;;;;;;;;;;7380124;19;20729;-66
2023/01/14 02:05:19;;;;;;;0.10;0.10;;;;;;;;;;7379003;19;20611;-66
2023/01/14 02:07:48;;;;;;;0.00;0.00;;;;;;;;;;7375721;19;20665;-66
2023/01/14 02:10:17;;;;;;;0.00;0.00;;;;;;;;;;7376309;19;20644;-66
2023/01/14 02:12:52;;;;;;;0.00;0.00;;;;;;;;;;7377729;19;20643;-66
2023/01/14 02:15:28;;;;;;;0.10;0.10;;;;;;;;;;7376070;19;20602;-67
2023/01/14 02:18:04;;;;;;;0.10;0.10;;;;;;;;;;7377099;19;20618;-66
2023/01/14 02:20:38;;;;;;;0.00;0.00;;;;;;;;;;7376464;19;20634;-66
2023/01/14 02:23:27;;;;;;;0.10;0.10;;;;;;;;;;7376455;19;20666;-66
2023/01/14 02:26:11;;;;;;;0.10;0.10;;;;;;;;;;7376561;19;20764;-66
2023/01/14 02:28:49;;;;;;;0.00;0.00;;;;;;;;;;7374373;19;20666;-66
2023/01/14 02:31:22;;;;;;;0.00;0.00;;;;;;;;;;7376031;19;20705;-66
2023/01/14 02:33:55;;;;;;;0.00;0.00;;;;;;;;;;7374472;19;20623;-67
2023/01/14 02:36:29;;;;;;;0.10;0.10;;;;;;;;;;7374184;19;20611;-66
2023/01/14 02:39:04;;;;;;;0.00;0.00;;;;;;;;;;7375737;19;20638;-66
2023/01/14 02:44:21;;;;;;;0.10;0.10;;;;;;;;;;7374585;19;20668;-66
2023/01/14 02:46:56;;;;;;;0.03;0.03;;;;;;;;;;7375237;19;20631;-66
2023/01/14 02:49:27;;;;;;;0.10;0.10;;;;;;;;;;7375697;19;20676;-66
2023/01/14 02:51:58;;;;;;;0.00;0.00;;;;;;;;;;7375936;19;20749;-67
2023/01/14 02:54:29;;;;;;;0.00;0.00;;;;;;;;;;7373939;19;20653;-66
2023/01/14 02:57:01;;;;;;;0.00;0.00;;;;;;;;;;7377974;19;20692;-66
2023/01/14 02:59:35;;;;;;;0.00;0.00;;;;;;;;;;7376438;19;20599;-66
2023/01/14 03:02:12;;;;;;;0.10;0.10;;;;;;;;;;7375831;19;20668;-66
2023/01/14 03:04:46;;;;;;;0.10;0.10;;;;;;;;;;7376405;19;20603;-66
2023/01/14 03:07:19;;;;;;;0.10;0.10;;;;;;;;;;7375361;19;20658;-66
2023/01/14 03:09:55;;;;;;;0.00;0.00;;;;;;;;;;7374928;19;20743;-66
2023/01/14 03:12:33;;;;;;;0.10;0.10;;;;;;;;;;7376601;19;20649;-66
2023/01/14 03:15:05;;;;;;;0.10;0.10;;;;;;;;;;7375505;19;20611;-66
2023/01/14 03:17:39;;;;;;;0.10;0.10;;;;;;;;;;7373701;19;20776;-65
2023/01/14 03:20:11;;;;;;;0.10;0.10;;;;;;;;;;7374519;19;20688;-67
2023/01/14 03:22:41;;;;;;;0.10;0.10;;;;;;;;;;7375791;19;20639;-66
2023/01/14 03:25:11;;;;;;;0.10;0.10;;;;;;;;;;7373282;19;20767;-66
2023/01/14 03:27:42;;;;;;;0.10;0.10;;;;;;;;;;7374346;19;20666;-66
2023/01/14 03:30:16;;;;;;;0.10;0.10;;;;;;;;;;7374118;19;20699;-67
2023/01/14 03:32:53;;;;;;;0.00;0.00;;;;;;;;;;7374316;19;20757;-66
2023/01/14 03:35:25;;;;;;;0.10;0.10;;;;;;;;;;7374890;19;21150;-67
2023/01/14 03:37:57;;;;;;;0.10;0.10;;;;;;;;;;7374026;19;20680;-66
2023/01/14 03:40:27;;;;;;;0.10;0.10;;;;;;;;;;7374737;19;20673;-66
2023/01/14 03:42:58;;;;;;;0.00;0.00;;;;;;;;;;7375387;19;20724;-65
2023/01/14 03:45:29;;;;;;;0.00;0.00;;;;;;;;;;7371926;19;20635;-66
2023/01/14 03:48:01;;;;;;;0.10;0.10;;;;;;;;;;7372822;19;20675;-66
2023/01/14 03:50:31;;;;;;;0.10;0.10;;;;;;;;;;7375181;19;20721;-67
2023/01/14 03:53:09;;;;;;;0.10;0.10;;;;;;;;;;7375342;19;20615;-66
2023/01/14 03:55:39;;;;;;;0.10;0.10;;;;;;;;;;7374415;19;20720;-66
2023/01/14 03:58:11;;;;;;;0.10;0.10;;;;;;;;;;7371839;19;20789;-66
2023/01/14 04:00:44;;;;;;;0.00;0.00;;;;;;;;;;7374743;19;20784;-67
2023/01/14 04:03:16;;;;;;;0.10;0.10;;;;;;;;;;7372661;19;20626;-65
2023/01/14 04:05:45;;;;;;;0.10;0.10;;;;;;;;;;7374433;19;20639;-66
2023/01/14 04:08:14;;;;;;;0.10;0.10;;;;;;;;;;7373362;19;20664;-67
2023/01/14 04:10:44;;;;;;;0.10;0.10;;;;;;;;;;7375570;19;20658;-65
2023/01/14 04:15:57;;;;;;;0.10;0.10;;;;;;;;;;7374054;19;20603;-66
2023/01/14 04:18:28;;;;;;;0.10;0.10;;;;;;;;;;7372718;19;21466;-66
2023/01/14 04:20:57;;;;;;;0.00;0.00;;;;;;;;;;7374808;19;20612;-66
2023/01/14 04:23:26;;;;;;;0.10;0.10;;;;;;;;;;7373995;19;20729;-65
2023/01/14 04:25:58;;;;;;;0.10;0.10;;;;;;;;;;7373495;19;20671;-66
2023/01/14 04:28:27;;;;;;;0.00;0.00;;;;;;;;;;7372809;19;20615;-66
2023/01/14 04:30:56;;;;;;;0.00;0.00;;;;;;;;;;7376033;19;20718;-66
2023/01/14 04:33:28;;;;;;;0.10;0.10;;;;;;;;;;7373218;19;20713;-66
2023/01/14 04:35:57;;;;;;;0.10;0.10;;;;;;;;;;7373156;19;20757;-66
2023/01/14 04:38:26;;;;;;;0.10;0.10;;;;;;;;;;7373903;19;20615;-66
2023/01/14 04:40:56;;;;;;;0.00;0.00;;;;;;;;;;7375426;19;20611;-66
2023/01/14 04:43:22;;;;;;;0.10;0.10;;;;;;;;;;7375070;19;20636;-66
2023/01/14 04:45:52;;;;;;;0.10;0.10;;;;;;;;;;7373367;19;20614;-66
2023/01/14 04:48:21;;;;;;;0.10;0.10;;;;;;;;;;7372904;19;21131;-66
2023/01/14 04:50:52;;;;;;;0.10;0.10;;;;;;;;;;7374132;19;20714;-65
2023/01/14 04:53:23;;;;;;;0.10;0.10;;;;;;;;;;7373486;19;20623;-66
2023/01/14 04:55:55;;;;;;;0.10;0.10;;;;;;;;;;7375120;19;20607;-66
2023/01/14 04:58:24;;;;;;;0.10;0.10;;;;;;;;;;7378351;19;20705;-66
2023/01/14 05:00:53;;;;;;;0.10;0.10;;;;;;;;;;7381861;19;20735;-66
2023/01/14 05:03:22;;;;;;;0.10;0.10;;;;;;;;;;7380906;19;20657;-66
2023/01/14 05:05:53;;;;;;;0.10;0.10;;;;;;;;;;7380844;19;20694;-66
2023/01/14 05:08:22;;;;;;;0.10;0.10;;;;;;;;;;7377124;19;20796;-65
2023/01/14 05:10:51;;;;;;;0.10;0.10;;;;;;;;;;7381798;19;20599;-66
2023/01/14 05:13:20;;;;;;;0.00;0.00;;;;;;;;;;7380801;19;20603;-66
2023/01/14 05:15:49;;;;;;;0.10;0.10;;;;;;;;;;7380179;19;20623;-66
2023/01/14 05:18:18;;;;;;;0.10;0.10;;;;;;;;;;7375800;19;20872;-66
2023/01/14 05:20:47;;;;;;;0.10;0.10;;;;;;;;;;7379171;19;20737;-66
2023/01/14 05:23:19;;;;;;;0.00;0.00;;;;;;;;;;7380806;19;20668;-66
2023/01/14 05:25:50;;;;;;;0.10;0.10;;;;;;;;;;7377838;19;20765;-66
2023/01/14 05:28:20;;;;;;;0.10;0.10;;;;;;;;;;7376369;19;20642;-67
2023/01/14 05:30:50;;;;;;;0.10;0.10;;;;;;;;;;7379614;19;20619;-67
2023/01/14 05:33:19;;;;;;;0.10;0.10;;;;;;;;;;7379579;19;20614;-66
2023/01/14 05:35:48;;;;;;;0.10;0.10;;;;;;;;;;7377422;19;21070;-67
2023/01/14 05:38:19;;;;;;;0.10;0.10;;;;;;;;;;7377146;19;20718;-66
2023/01/14 05:40:48;;;;;;;0.10;0.10;;;;;;;;;;7379962;19;20682;-67
2023/01/14 05:45:59;;;;;;;0.10;0.10;;;;;;;;;;7379793;19;20582;-66
2023/01/14 05:48:28;;;;;;;0.10;0.10;;;;;;;;;;7378007;19;20635;-66
2023/01/14 05:50:59;;;;;;;0.10;0.10;;;;;;;;;;7377948;19;20771;-66
2023/01/14 05:53:30;;;;;;;0.10;0.10;;;;;;;;;;7379076;19;20606;-67
2023/01/14 05:56:00;;;;;;;0.10;0.10;;;;;;;;;;7378847;19;20635;-67
2023/01/14 05:58:30;;;;;;;0.10;0.10;;;;;;;;;;7377579;19;20661;-66
2023/01/14 06:06:28;;;;;;;0.00;0.00;;;;;;;;;;7378277;19;20728;-67
2023/01/14 06:09:00;;;;;;;0.10;0.10;;;;;;;;;;7375265;19;20736;-66
2023/01/14 06:11:32;;;;;;;0.10;0.10;;;;;;;;;;7377414;19;20627;-67
2023/01/14 06:14:01;;;;;;;0.00;0.00;;;;;;;;;;7378021;19;20622;-67
2023/01/14 06:16:32;;;;;;;0.10;0.10;;;;;;;;;;7377014;19;21278;-67
2023/01/14 06:19:01;;;;;;;0.07;0.07;;;;;;;;;;7378252;19;20925;-66
2023/01/14 06:21:30;;;;;;;0.00;0.00;;;;;;;;;;7376679;19;20754;-66
2023/01/14 06:24:02;;;;;;;0.00;0.00;;;;;;;;;;7377250;19;20675;-67
2023/01/14 06:26:31;;;;;;;0.10;0.10;;;;;;;;;;7378156;19;20595;-67
2023/01/14 06:29:00;;;;;;;0.10;0.10;;;;;;;;;;7379191;19;20720;-66
2023/01/14 06:31:30;;;;;;;0.10;0.10;;;;;;;;;;7378905;19;20623;-67
2023/01/14 06:34:01;;;;;;;0.00;0.00;;;;;;;;;;7378603;19;20657;-67
2023/01/14 06:36:30;;;;;;;0.10;0.10;;;;;;;;;;7377919;19;20683;-67
2023/01/14 06:39:02;;;;;;;0.10;0.10;;;;;;;;;;7378404;19;20663;-66
2023/01/14 06:41:31;;;;;;;0.10;0.10;;;;;;;;;;7379199;19;20731;-67
2023/01/14 06:43:59;;;;;;;0.10;0.10;;;;;;;;;;7377104;19;20640;-67
2023/01/14 06:46:29;;;;;;;0.00;0.00;;;;;;;;;;7376496;19;20721;-67
2023/01/14 06:48:58;;;;;;;0.00;0.00;;;;;;;;;;7376052;19;21097;-67
2023/01/14 06:51:27;;;;;;;0.10;0.10;;;;;;;;;;7377351;19;20644;-66
2023/01/14 06:53:56;;;;;;;0.10;0.10;;;;;;;;;;7376056;19;20702;-67
2023/01/14 06:56:28;;;;;;;0.10;0.10;;;;;;;;;;7376712;19;20671;-67
2023/01/14 06:58:56;;;;;;;0.10;0.10;;;;;;;;;;7376335;19;20744;-66
2023/01/14 07:01:25;;;;;;;0.10;0.10;;;;;;;;;;7377008;19;20728;-67
2023/01/14 07:03:54;;;;;;;0.10;0.10;;;;;;;;;;7377697;19;20619;-66
2023/01/14 07:06:23;;;;;;;0.10;0.10;;;;;;;;;;7377103;19;20643;-66
2023/01/14 07:08:52;;;;;;;0.10;0.10;;;;;;;;;;7375670;19;20615;-66
2023/01/14 07:11:21;;;;;;;0.00;0.00;;;;;;;;;;7376580;19;20599;-66
2023/01/14 07:13:53;;;;;;;0.10;0.10;;;;;;;;;;7375736;19;20705;-67
2023/01/14 07:16:21;;;;;;;0.00;0.00;;;;;;;;;;7376961;19;20671;-66
2023/01/14 07:18:50;;;;;;;0.10;0.10;;;;;;;;;;7374666;19;20726;-66
2023/01/14 07:21:19;;;;;;;0.10;0.10;;;;;;;;;;7376825;19;20599;-67
2023/01/14 07:23:50;;;;;;;0.10;0.10;;;;;;;;;;7373363;19;20631;-67
2023/01/14 07:26:18;;;;;;;0.10;0.10;;;;;;;;;;7376916;19;20642;-67
2023/01/14 07:28:47;;;;;;;0.00;0.00;;;;;;;;;;7372472;19;21017;-66
2023/01/14 07:31:19;;;;;;;0.10;0.10;;;;;;;;;;7374193;19;20768;-67
2023/01/14 07:33:47;;;;;;;0.00;0.00;;;;;;;;;;7374833;19;20647;-66
2023/01/14 07:36:16;;;;;;;0.10;0.10;;;;;;;;;;7375854;19;20734;-67
2023/01/14 07:38:45;;;;;;;0.10;0.10;;;;;;;;;;7373698;19;20611;-66
2023/01/14 07:41:17;;;;;;;0.10;0.10;;;;;;;;;;7373678;19;20619;-67
2023/01/14 07:43:46;;;;;;;0.10;0.10;;;;;;;;;;7375800;19;20611;-66
2023/01/14 07:46:15;;;;;;;0.10;0.10;;;;;;;;;;7375547;19;20730;-66
2023/01/14 07:48:47;;;;;;;0.10;0.10;;;;;;;;;;7373441;19;20805;-66
2023/01/14 07:51:20;;;;;;;0.10;0.10;;;;;;;;;;7373088;19;21330;-66
2023/01/14 07:53:49;;;;;;;0.10;0.10;;;;;;;;;;7375525;19;20648;-67
2023/01/14 07:56:18;;;;;;;0.00;0.00;;;;;;;;;;7372667;19;20741;-66
2023/01/14 07:58:49;;;;;;;0.10;0.10;;;;;;;;;;7374430;19;20615;-64
2023/01/14 08:01:18;;;;;;;0.10;0.10;;;;;;;;;;7373185;19;20703;-67
2023/01/14 08:03:50;;;;;;;0.10;0.10;;;;;;;;;;7375846;19;20591;-67
2023/01/14 08:06:19;;;;;;;0.10;0.10;;;;;;;;;;7377762;19;20663;-67
2023/01/14 08:08:48;;;;;;;0.10;0.10;;;;;;;;;;7376222;19;20616;-67
2023/01/14 08:11:17;;;;;;;0.10;0.10;;;;;;;;;;7379727;19;20607;-67
2023/01/14 08:13:45;;;;;;;0.00;0.00;;;;;;;;;;7379360;19;21017;-66
2023/01/14 08:16:15;;;;;;;0.10;0.10;;;;;;;;;;7377673;19;20753;-66
2023/01/14 08:18:44;;;;;;;0.00;0.00;;;;;;;;;;7374205;19;20651;-67
2023/01/14 08:21:15;;;;;;;0.10;0.10;;;;;;;;;;7377891;19;20733;-67
2023/01/14 08:23:44;;;;;;;0.10;0.10;;;;;;;;;;7374835;19;20654;-66
2023/01/14 08:26:13;;;;;;;0.10;0.10;;;;;;;;;;7377465;19;20748;-67
2023/01/14 08:28:43;;;;;;;0.10;0.10;;;;;;;;;;7376190;19;20619;-67
2023/01/14 08:31:13;;;;;;;0.10;0.10;;;;;;;;;;7379526;19;20630;-67
2023/01/14 08:33:43;;;;;;;0.10;0.10;;;;;;;;;;7385982;19;20617;-66
2023/01/14 08:36:13;;;;;;;0.10;0.10;;;;;;;;;;7387526;19;20721;-66
2023/01/14 08:38:48;;;;;;;0.10;0.10;;;;;;;;;;7384230;19;20725;-66
2023/01/14 08:41:18;;;;;;;0.10;0.10;;;;;;;;;;7386054;19;21301;-67
2023/01/14 08:43:49;;;;;;;0.07;0.07;;;;;;;;;;7383113;19;20639;-67
2023/01/14 08:46:18;;;;;;;0.10;0.10;;;;;;;;;;7379209;19;20761;-65
2023/01/14 08:48:47;;;;;;;0.10;0.10;;;;;;;;;;7378091;19;20662;-65
2023/01/14 08:51:16;;;;;;;0.10;0.10;;;;;;;;;;7381120;19;20712;-65
2023/01/14 08:53:48;;;;;;;0.10;0.10;;;;;;;;;;7379056;19;20627;-65
2023/01/14 08:56:17;;;;;;;0.10;0.10;;;;;;;;;;7378592;19;20633;-65
2023/01/14 08:58:46;;;;;;;0.10;0.10;;;;;;;;;;7378674;19;20663;-65
2023/01/14 09:01:15;;;;;;;0.10;0.10;;;;;;;;;;7378651;19;20635;-65
2023/01/14 09:03:45;;;;;;;0.10;0.10;;;;;;;;;;7380260;19;20665;-65
2023/01/14 09:06:16;;;;;;;0.00;0.00;;;;;;;;;;7380560;19;20599;-65
2023/01/14 09:19:37;;;;;;;0.10;0.10;;;;;;;;;;7380989;19;20619;-65
2023/01/14 09:22:07;;;;;;;0.10;0.10;;;;;;;;;;7380129;19;20591;-65
2023/01/14 09:24:38;;;;;;;0.10;0.10;;;;;;;;;;7378968;19;20776;-64
2023/01/14 09:27:07;;;;;;;0.10;0.10;;;;;;;;;;7377978;19;20701;-65
2023/01/14 09:29:36;;;;;;;0.03;0.03;;;;;;;;;;7379426;19;20883;-64
2023/01/14 09:32:05;;;;;;;0.10;0.10;;;;;;;;;;7378598;19;20737;-66
2023/01/14 09:34:34;;;;;;;0.10;0.10;;;;;;;;;;7379885;19;20721;-65
2023/01/14 09:37:03;;;;;;;0.10;0.10;;;;;;;;;;7375687;19;20789;-65
2023/01/14 09:39:32;;;;;;;0.10;0.10;;;;;;;;;;7378032;19;20753;-65
2023/01/14 09:42:04;;;;;;;0.10;0.10;;;;;;;;;;7377437;19;21335;-65
2023/01/14 09:44:33;;;;;;;0.10;0.10;;;;;;;;;;7379194;19;20599;-65
2023/01/14 09:47:03;;;;;;;0.07;0.07;;;;;;;;;;7376770;19;20647;-65
2023/01/14 09:49:32;;;;;;;0.00;0.00;;;;;;;;;;7378801;19;20713;-65
2023/01/14 09:52:11;;;;;;;0.10;0.10;;;;;;;;;;7377953;19;20760;-65
2023/01/14 09:54:45;;;;;;;0.10;0.10;;;;;;;;;;7378166;19;20669;-65
2023/01/14 09:57:20;;;;;;;0.03;0.03;;;;;;;;;;7377203;19;20750;-65
2023/01/14 09:59:53;;;;;;;0.10;0.10;;;;;;;;;;7377440;19;20626;-65
2023/01/14 10:02:24;;;;;;;0.10;0.10;;;;;;;;;;7378596;19;20645;-65
2023/01/14 10:04:59;;;;;;;0.10;0.10;;;;;;;;;;7379991;19;20618;-65
2023/01/14 10:07:29;;;;;;;0.10;0.10;;;;;;;;;;7379086;19;20723;-65
2023/01/14 10:09:59;;;;;;;0.10;0.10;;;;;;;;;;7377803;19;20741;-65
2023/01/14 10:12:33;;;;;;;0.10;0.10;;;;;;;;;;7379942;19;20603;-66
2023/01/14 10:15:06;;;;;;;0.10;0.10;;;;;;;;;;7377180;19;20638;-65
2023/01/14 10:17:38;;;;;;;0.00;0.00;;;;;;;;;;7376512;19;20801;-66
2023/01/14 10:20:09;;;;;;;0.00;0.00;;;;;;;;;;7379332;19;20615;-66
2023/01/14 10:22:39;;;;;;;0.00;0.00;;;;;;;;;;7378692;19;20615;-66
2023/01/14 10:25:16;;;;;;;0.10;0.10;;;;;;;;;;7378322;19;20600;-66
2023/01/14 10:27:48;;;;;;;0.00;0.00;;;;;;;;;;7376772;19;20788;-66
2023/01/14 10:30:22;;;;;;;0.10;0.10;;;;;;;;;;7377974;19;20603;-66
2023/01/14 10:32:52;;;;;;;0.10;0.10;;;;;;;;;;7377243;19;20722;-67
2023/01/14 10:35:25;;;;;;;0.00;0.00;;;;;;;;;;7376954;19;20607;-66
2023/01/14 10:37:54;;;;;;;0.03;0.03;;;;;;;;;;7375783;19;20805;-66
2023/01/14 10:40:25;;;;;;;0.10;0.10;;;;;;;;;;7375730;19;21173;-66
2023/01/14 10:42:57;;;;;;;0.00;0.00;;;;;;;;;;7377840;19;20615;-66
2023/01/14 10:45:26;;;;;;;0.00;0.00;;;;;;;;;;7376087;19;20679;-66
2023/01/14 10:48:02;;;;;;;0.00;0.00;;;;;;;;;;7376600;19;20631;-66
2023/01/14 10:50:31;;;;;;;0.10;0.10;;;;;;;;;;7377826;19;20693;-66
2023/01/14 10:53:16;;;;;;;0.10;0.10;;;;;;;;;;7375669;19;21389;-66
2023/01/14 10:55:50;;;;;;;0.10;0.10;;;;;;;;;;7377079;19;20575;-66
2023/01/14 10:58:24;;;;;;;0.07;0.07;;;;;;;;;;7374023;19;20671;-66
2023/01/14 11:00:54;;;;;;;0.00;0.00;;;;;;;;;;7375922;19;20599;-67
2023/01/14 11:03:25;;;;;;;0.00;0.00;;;;;;;;;;7377486;19;20722;-67
2023/01/14 11:05:58;;;;;;;0.00;0.00;;;;;;;;;;7371344;19;20702;-66
2023/01/14 11:08:33;;;;;;;0.10;0.10;;;;;;;;;;7373039;19;20719;-67
2023/01/14 11:11:03;;;;;;;0.10;0.10;;;;;;;;;;7376850;19;20591;-66
2023/01/14 11:13:41;;;;;;;0.10;0.10;;;;;;;;;;7375970;19;20619;-66
2023/01/14 11:16:28;;;;;;;0.10;0.10;;;;;;;;;;7374591;19;20653;-66
2023/01/14 11:18:58;;;;;;;0.00;0.00;;;;;;;;;;7374750;19;20631;-66
2023/01/14 11:21:28;;;;;;;0.10;0.10;;;;;;;;;;7375716;19;20664;-66
2023/01/14 11:23:59;;;;;;;0.00;0.00;;;;;;;;;;7373674;19;20630;-66
2023/01/14 11:26:30;;;;;;;0.10;0.10;;;;;;;;;;7375059;19;20692;-66
2023/01/14 11:29:10;;;;;;;0.10;0.10;;;;;;;;;;7376416;19;20603;-66
2023/01/14 11:31:39;;;;;;;0.00;0.00;;;;;;;;;;7375371;19;20739;-66
2023/01/14 11:34:20;;;;;;;0.00;0.00;;;;;;;;;;7375495;19;20663;-66
2023/01/14 11:36:49;;;;;;;0.00;0.00;;;;;;;;;;7375176;19;20733;-66
2023/01/14 11:39:20;;;;;;;0.10;0.10;;;;;;;;;;7372924;19;20706;-67
2023/01/14 11:41:49;;;;;;;0.00;0.00;;;;;;;;;;7374441;19;20694;-67
2023/01/14 11:44:28;;;;;;;0.00;0.00;;;;;;;;;;7373663;19;20666;-66
2023/01/14 11:47:22;;;;;;;0.10;0.10;;;;;;;;;;7375659;19;20729;-67
2023/01/14 11:49:51;;;;;;;0.10;0.10;;;;;;;;;;7373497;19;21524;-66
2023/01/14 11:52:22;;;;;;;0.10;0.10;;;;;;;;;;7376046;19;20653;-66
2023/01/14 11:54:52;;;;;;;0.10;0.10;;;;;;;;;;7369720;19;20599;-66
2023/01/14 11:57:22;;;;;;;0.10;0.10;;;;;;;;;;7372775;19;20721;-67
2023/01/14 11:59:53;;;;;;;0.10;0.10;;;;;;;;;;7374281;19;20604;-67
2023/01/14 12:02:26;;;;;;;0.10;0.10;;;;;;;;;;7374539;19;20986;-66
2023/01/14 12:04:58;;;;;;;0.00;0.00;;;;;;;;;;7372905;19;20644;-66
2023/01/14 12:07:30;;;;;;;0.10;0.10;;;;;;;;;;7371715;19;20797;-66
2023/01/14 12:10:00;;;;;;;0.00;0.00;;;;;;;;;;7373832;19;20671;-66
2023/01/14 12:16:48;;;;;;;0.10;0.10;;;;;;;;;;7373733;19;20734;-66
2023/01/14 12:18:08;;;;;;;0.07;0.07;;;;;;;;;;7373101;19;20655;-66
2023/01/14 12:20:37;;;;;;;0.00;0.00;;;;;;;;;;7372891;19;20638;-66
2023/01/14 12:23:07;;;;;;;0.10;0.10;;;;;;;;;;7372872;19;20627;-66
2023/01/14 12:25:39;;;;;;;0.00;0.00;;;;;;;;;;7374147;19;20588;-66
2023/01/14 12:28:09;;;;;;;0.00;0.00;;;;;;;;;;7370726;19;20716;-66
2023/01/14 12:30:49;;;;;;;0.10;0.10;;;;;;;;;;7372082;19;20615;-67
2023/01/14 12:33:25;;;;;;;0.00;0.00;;;;;;;;;;7371962;19;20603;-66
2023/01/14 12:35:57;;;;;;;0.10;0.10;;;;;;;;;;7369626;19;20649;-66
2023/01/14 12:46:38;;;;;;;0.10;0.10;;;;;;;;;;7374504;19;20606;-68
2023/01/14 12:49:07;;;;;;;0.00;0.00;;;;;;;;;;7373084;19;20652;-68
2023/01/14 12:51:38;;;;;;;0.10;0.10;;;;;;;;;;7373689;19;20699;-67
2023/01/14 12:54:08;;;;;;;0.10;0.10;;;;;;;;;;7372375;19;20761;-66
2023/01/14 12:56:38;;;;;;;0.10;0.10;;;;;;;;;;7374198;19;20656;-66
2023/01/14 12:59:09;;;;;;;0.07;0.07;;;;;;;;;;7371578;19;20749;-66
2023/01/14 13:01:41;;;;;;;0.10;0.10;;;;;;;;;;7374550;19;20599;-66
2023/01/14 13:04:20;;;;;;;0.00;0.00;;;;;;;;;;7370908;19;20610;-67
2023/01/14 13:06:49;;;;;;;0.10;0.10;;;;;;;;;;7373908;19;20639;-66
2023/01/14 13:09:22;;;;;;;0.00;0.00;;;;;;;;;;7373566;19;20702;-66
2023/01/14 13:11:52;;;;;;;0.00;0.00;;;;;;;;;;7374292;19;20688;-66
2023/01/14 13:14:23;;;;;;;0.10;0.10;;;;;;;;;;7372507;19;20633;-66
2023/01/14 13:17:01;;;;;;;0.00;0.00;;;;;;;;;;7375195;19;20603;-66
2023/01/14 13:19:37;;;;;;;0.00;0.00;;;;;;;;;;7378599;19;20717;-66
2023/01/14 13:22:06;;;;;;;0.00;0.00;;;;;;;;;;7379560;19;20674;-66
2023/01/14 13:24:39;;;;;;;0.10;0.10;;;;;;;;;;7378277;19;20623;-66
2023/01/14 13:27:22;;;;;;;0.10;0.10;;;;;;;;;;7379115;19;20793;-66
2023/01/14 13:29:51;;;;;;;0.00;0.00;;;;;;;;;;7379751;19;20726;-65
2023/01/14 13:32:35;;;;;;;0.10;0.10;;;;;;;;;;7381133;19;20635;-65
2023/01/14 13:35:20;;;;;;;0.03;0.03;;;;;;;;;;7377374;19;20753;-66
2023/01/14 13:37:49;;;;;;;0.10;0.10;;;;;;;;;;7377563;19;20726;-66
2023/01/14 13:40:20;;;;;;;0.00;0.00;;;;;;;;;;7378752;19;20767;-66
2023/01/14 13:42:58;;;;;;;0.00;0.00;;;;;;;;;;7379695;19;20633;-67
2023/01/14 13:45:30;;;;;;;0.10;0.10;;;;;;;;;;7379345;19;20652;-68
2023/01/14 13:48:00;;;;;;;0.10;0.10;;;;;;;;;;7379068;19;20622;-67
2023/01/14 13:50:32;;;;;;;0.10;0.10;;;;;;;;;;7378888;19;20758;-67
2023/01/14 13:53:04;;;;;;;0.00;0.00;;;;;;;;;;7380156;19;20710;-69
2023/01/14 13:55:34;;;;;;;0.10;0.10;;;;;;;;;;7378815;19;20757;-69
2023/01/14 13:58:05;;;;;;;0.10;0.10;;;;;;;;;;7376160;19;20788;-68
2023/01/14 14:00:37;;;;;;;0.00;0.00;;;;;;;;;;7380912;19;20586;-69
2023/01/14 14:03:21;;;;;;;0.10;0.10;;;;;;;;;;7379286;19;20599;-68
2023/01/14 14:06:13;;;;;;;0.00;0.00;;;;;;;;;;7375087;19;21106;-68
2023/01/14 14:08:44;;;;;;;0.00;0.00;;;;;;;;;;7375799;19;20730;-68
2023/01/14 14:11:16;;;;;;;0.00;0.00;;;;;;;;;;7377772;19;20721;-67
2023/01/14 14:16:31;;;;;;;0.10;0.10;;;;;;;;;;7373655;19;20635;-68
2023/01/14 14:19:04;;;;;;;0.00;0.00;;;;;;;;;;7376105;19;20986;-68
2023/01/14 14:21:36;;;;;;;0.00;0.00;;;;;;;;;;7379615;19;20714;-68
2023/01/14 14:24:09;;;;;;;0.00;0.00;;;;;;;;;;7377517;19;20645;-69
2023/01/14 14:26:38;;;;;;;0.10;0.10;;;;;;;;;;7378073;19;20665;-69
2023/01/14 14:29:11;;;;;;;0.10;0.10;;;;;;;;;;7377472;19;20716;-69
2023/01/14 14:31:40;;;;;;;0.00;0.00;;;;;;;;;;7375642;19;20668;-68
2023/01/14 14:34:09;;;;;;;0.10;0.10;;;;;;;;;;7376183;19;20752;-68
2023/01/14 14:36:40;;;;;;;0.10;0.10;;;;;;;;;;7376206;19;20659;-68
2023/01/14 14:39:22;;;;;;;0.00;0.00;;;;;;;;;;7377500;19;20653;-68
2023/01/14 14:41:51;;;;;;;0.10;0.10;;;;;;;;;;7376225;19;20749;-69
2023/01/14 14:44:21;;;;;;;0.10;0.10;;;;;;;;;;7375886;19;20753;-68
2023/01/14 14:46:50;;;;;;;0.10;0.10;;;;;;;;;;7377535;19;20611;-68
2023/01/14 14:49:23;;;;;;;0.00;0.00;;;;;;;;;;7377592;19;20659;-69
2023/01/14 14:51:54;;;;;;;0.10;0.10;;;;;;;;;;7376764;19;20627;-69
2023/01/14 14:54:30;;;;;;;0.10;0.10;;;;;;;;;;7376690;19;20668;-68
2023/01/14 14:56:59;;;;;;;0.10;0.10;;;;;;;;;;7378171;19;20611;-68
2023/01/14 14:59:29;;;;;;;0.00;0.00;;;;;;;;;;7376256;19;20643;-68
2023/01/14 15:01:59;;;;;;;0.00;0.00;;;;;;;;;;7377679;19;20649;-69
2023/01/14 15:04:29;;;;;;;0.10;0.10;;;;;;;;;;7372960;19;20652;-67
2023/01/14 15:06:59;;;;;;;0.10;0.10;;;;;;;;;;7376743;19;20784;-67
2023/01/14 15:09:31;;;;;;;0.10;0.10;;;;;;;;;;7377282;19;20738;-68
2023/01/14 15:12:00;;;;;;;0.10;0.10;;;;;;;;;;7377688;19;20603;-69
2023/01/14 15:14:31;;;;;;;0.10;0.10;;;;;;;;;;7376346;19;20655;-68
2023/01/14 15:17:00;;;;;;;0.10;0.10;;;;;;;;;;7375590;19;20785;-68
2023/01/14 15:19:30;;;;;;;0.00;0.00;;;;;;;;;;7375926;19;20734;-70
2023/01/14 15:22:02;;;;;;;0.10;0.10;;;;;;;;;;7375515;19;20763;-67
2023/01/14 15:24:35;;;;;;;0.00;0.00;;;;;;;;;;7374473;19;20763;-69
2023/01/14 15:27:05;;;;;;;0.10;0.10;;;;;;;;;;7374504;19;20784;-69
2023/01/14 15:29:36;;;;;;;0.10;0.10;;;;;;;;;;7375290;19;20611;-69
2023/01/14 15:32:20;;;;;;;0.00;0.00;;;;;;;;;;7374054;19;20622;-68
2023/01/14 15:34:49;;;;;;;0.00;0.00;;;;;;;;;;7368228;19;20631;-68
2023/01/14 15:37:23;;;;;;;0.10;0.10;;;;;;;;;;7372559;19;20662;-68
2023/01/14 15:39:54;;;;;;;0.00;0.00;;;;;;;;;;7373703;19;20603;-67
2023/01/14 15:42:25;;;;;;;0.10;0.10;;;;;;;;;;7372516;19;20741;-69
2023/01/14 15:44:55;;;;;;;0.10;0.10;;;;;;;;;;7374673;19;20591;-69